Rosendale, NY

11:34 PM EST on December 22, 2014 (GMT -0500)
Dutchess County | Change Station
CLOSE
Current Station
Airport
Location: Poughkeepsie,
Elevation: 164 ft
Nearby Weather Stations

Elev 164 ft 41.63 °N, 73.88 °W | Updated 9 minutes ago

Overcast
Overcast
37 °F
Feels Like 34 °F
N
4
Wind Variable Wind from North

Today
High -- | Low -- °F
--% Chance of Precip.
Yesterday
High -- | Low -- °F
Precip. -- in
7:20 AM 4:28 PM
New Moon, 2% visible
Pressure 30.19 in
Visibility 3.0 miles
Clouds Few 1000 ft
Overcast 1500 ft
Windchill 34 °F
Dew Point 34 °F
Humidity 89%
Rainfall 0.01 in
Snow Depth Not available.
UV 0 out of 12
Pollen .10 out of 12
Air Quality Not available.
Flu Activity Not available.
SPECI KPOU 230425Z AUTO 36003KT 3SM -RA BR FEW010 OVC015 03/01 A3019 RMK AO2 P0000 T00280011 TSNO

More Conditions Fewer Conditions

Pressure 30.19 in
Visibility 3.0 miles
Clouds Few 1000 ft
Overcast 1500 ft
Windchill 34 °F
Dew Point 34 °F
Humidity 89%
Rainfall 0.01 in
Snow Depth Not available.
UV 0 out of 12
Pollen .10 out of 12
Air Quality Not available.
Flu Activity Not available.
SPECI KPOU 230425Z AUTO 36003KT 3SM -RA BR FEW010 OVC015 03/01 A3019 RMK AO2 P0000 T00280011 TSNO

More Conditions Fewer Conditions

10-Day Weather Forecast

Almanac

Astronomy

Dec. 22, 2014 Rise Set
Actual Time
Civil Twilight
Nautical Twilight
Astronomical Twilight
Moon
Length of Visible Light
Length of Day
Tomorrow will be .
, % of the Moon is Illuminated

Today's Extremes

State Highs State Lows

Community

WunderPhotos

Upload Photos

1,779,778 photos uploaded!

WunderBlogs® & News

Nearby

Air Quality

  Air Quality AQ Index Pollutant
Not available.

Snow Depth

Station Depth Elevation

Earthquake Activity

City Distance Mag. Time & Date
Minimum magnitude displayed is 2.5.

Coastal Water Temperatures

Place Temperature

Nearby Weather Stations